Time;durP1;ratioP1;P1;durP2;ratioP2;P2;SDS_P1;SDS_P2;PMS_P1;PMS_P2;Temp;Humidity;BMP_temperature;BMP_pressure;BME280_temperature;BME280_humidity;BME280_pressure;Samples;Min_cycle;Max_cycle;Signal;HPM_P1;HPM_P2
2022/11/12 00:01:23;;;;;;;42.60;22.00;;;;;;;9.78;67.82;100369.30;103494;1293;97873;-71
2022/11/12 00:03:51;;;;;;;37.20;19.40;;;;;;;9.79;67.91;100375.79;103455;1298;107581;-72
2022/11/12 00:06:19;;;;;;;32.60;18.60;;;;;;;9.80;67.84;100384.59;103539;1290;97969;-71
2022/11/12 00:08:46;;;;;;;36.50;18.80;;;;;;;9.80;67.85;100385.28;103392;1293;97899;-73
2022/11/12 00:11:17;;;;;;;36.70;19.10;;;;;;;9.81;67.93;100388.80;103521;1298;110842;-71
2022/11/12 00:13:44;;;;;;;34.70;19.10;;;;;;;9.81;67.94;100393.03;103322;1293;95198;-71
2022/11/12 00:16:13;;;;;;;36.00;18.70;;;;;;;9.81;67.91;100395.52;103468;1294;107449;-71
2022/11/12 00:18:41;;;;;;;38.10;19.00;;;;;;;9.81;67.93;100395.88;103525;1290;98632;-74
2022/11/12 00:21:08;;;;;;;34.70;19.10;;;;;;;9.82;68.03;100397.77;103506;1290;95276;-71
2022/11/12 00:23:36;;;;;;;31.40;18.00;;;;;;;9.82;68.04;100406.79;103574;1290;110887;-70
2022/11/12 00:26:04;;;;;;;32.60;18.50;;;;;;;9.83;68.06;100414.38;103546;1298;97895;-71
2022/11/12 00:28:32;;;;;;;37.30;19.00;;;;;;;9.83;68.09;100417.02;103513;1296;107490;-70
2022/11/12 00:31:11;;;;;;;34.60;18.30;;;;;;;9.85;68.13;100407.39;103296;1293;98093;-71
2022/11/12 00:33:44;;;;;;;36.20;18.10;;;;;;;9.86;68.11;100407.53;103515;1296;97852;-70
2022/11/12 00:36:12;;;;;;;35.30;18.30;;;;;;;9.87;68.06;100406.06;103578;1297;111114;-71
2022/11/12 00:38:39;;;;;;;35.50;18.20;;;;;;;9.88;68.15;100405.12;103387;1293;98037;-72
2022/11/12 00:41:07;;;;;;;35.10;18.60;;;;;;;9.87;68.19;100405.67;103549;1290;107390;-69
2022/11/12 00:43:35;;;;;;;34.40;18.30;;;;;;;9.89;68.23;100409.16;103532;1298;97896;-69
2022/11/12 00:46:03;;;;;;;35.80;18.00;;;;;;;9.90;68.20;100412.83;103566;1295;95206;-68
2022/11/12 00:48:31;;;;;;;36.30;18.00;;;;;;;9.89;68.18;100413.23;103436;1297;110922;-69
2022/11/12 00:51:06;;;;;;;33.00;16.80;;;;;;;9.89;68.21;100410.56;103286;1296;97930;-70
2022/11/12 00:53:34;;;;;;;31.30;16.70;;;;;;;9.88;68.15;100406.00;103406;1290;107567;-70
2022/11/12 00:56:08;;;;;;;35.20;17.50;;;;;;;9.87;68.18;100408.01;103420;1298;95190;-69
2022/11/12 00:58:36;;;;;;;34.20;16.50;;;;;;;9.87;68.25;100406.39;103302;1294;95546;-70
2022/11/12 01:01:10;;;;;;;31.30;16.20;;;;;;;9.87;68.30;100397.87;103462;1286;111740;-70
2022/11/12 01:03:43;;;;;;;34.60;17.50;;;;;;;9.87;68.24;100392.95;103445;1293;95176;-71
2022/11/12 01:06:18;;;;;;;33.00;16.70;;;;;;;9.85;68.34;100388.80;103476;1291;108140;-70
2022/11/12 01:08:51;;;;;;;31.40;16.00;;;;;;;9.82;68.20;100379.70;103465;1292;97903;-70
2022/11/12 01:11:28;;;;;;;31.10;15.70;;;;;;;9.79;68.17;100382.33;103490;1291;97963;-70
2022/11/12 01:14:03;;;;;;;31.50;15.50;;;;;;;9.77;68.27;100384.05;103407;1291;111303;-70
2022/11/12 01:16:38;;;;;;;29.90;15.00;;;;;;;9.75;68.28;100384.13;103511;1298;97738;-71
2022/11/12 01:19:12;;;;;;;29.50;14.90;;;;;;;9.72;68.29;100383.88;103435;1291;107568;-70
2022/11/12 01:21:44;;;;;;;30.30;14.80;;;;;;;9.69;68.31;100378.21;103369;1294;97956;-70
2022/11/12 01:24:12;;;;;;;32.90;14.60;;;;;;;9.67;68.41;100379.20;103240;1291;95254;-72
2022/11/12 01:26:40;;;;;;;32.00;14.90;;;;;;;9.67;68.38;100379.02;103448;1300;111083;-69
2022/11/12 01:29:08;;;;;;;34.60;15.90;;;;;;;9.65;68.39;100378.20;103517;1298;97856;-70
2022/11/12 01:31:41;;;;;;;27.20;14.50;;;;;;;9.64;68.37;100384.80;103531;1284;107550;-72
2022/11/12 01:34:12;;;;;;;32.80;16.90;;;;;;;9.62;68.40;100398.20;103568;1290;95298;-70
2022/11/12 01:36:42;;;;;;;29.60;14.80;;;;;;;9.61;68.53;100407.96;103577;1298;96550;-71
2022/11/12 01:39:14;;;;;;;32.00;16.70;;;;;;;9.61;68.45;100412.77;103533;1291;111141;-70
2022/11/12 01:41:41;;;;;;;33.40;17.80;;;;;;;9.56;68.35;100407.70;103548;1291;97879;-71
2022/11/12 01:44:12;;;;;;;33.10;16.40;;;;;;;9.51;68.44;100404.71;103587;1292;107284;-73
2022/11/12 01:46:58;;;;;;;30.40;16.60;;;;;;;9.50;68.42;100401.60;103568;1291;97864;-70
2022/11/12 01:49:42;;;;;;;30.20;16.70;;;;;;;9.47;68.52;100407.73;103356;1301;97891;-73
2022/11/12 01:52:39;;;;;;;30.90;16.60;;;;;;;9.46;68.51;100409.55;103599;1290;111190;-71
2022/11/12 01:55:14;;;;;;;32.90;17.50;;;;;;;9.44;68.58;100408.95;103415;1290;97986;-73
2022/11/12 01:58:14;;;;;;;32.70;17.20;;;;;;;9.44;68.66;100413.55;103496;1292;107819;-71
2022/11/12 02:00:46;;;;;;;34.20;17.40;;;;;;;9.43;68.65;100412.52;103572;1298;95808;-71
2022/11/12 02:03:21;;;;;;;37.80;19.30;;;;;;;9.43;68.63;100415.56;103527;1296;97962;-73
2022/11/12 02:06:08;;;;;;;34.10;18.00;;;;;;;9.43;68.74;100417.33;103562;1285;111127;-70
2022/11/12 02:08:40;;;;;;;35.10;18.10;;;;;;;9.43;68.55;100416.63;103536;1298;95241;-70
2022/11/12 02:11:18;;;;;;;33.30;17.80;;;;;;;9.39;68.62;100414.48;103516;1291;107491;-70
2022/11/12 02:14:00;;;;;;;33.00;16.70;;;;;;;9.38;68.66;100409.23;103360;1301;98050;-70
2022/11/12 02:16:44;;;;;;;32.90;17.00;;;;;;;9.36;68.78;100405.76;103522;1294;95183;-70
2022/11/12 02:19:18;;;;;;;32.80;17.90;;;;;;;9.36;68.77;100403.45;103569;1297;110967;-70
2022/11/12 02:21:46;;;;;;;32.90;18.00;;;;;;;9.37;68.87;100409.45;103575;1297;95804;-69
2022/11/12 02:24:14;;;;;;;35.20;17.70;;;;;;;9.37;68.85;100412.10;103562;1285;107490;-70
2022/11/12 02:26:50;;;;;;;33.90;18.10;;;;;;;9.38;68.90;100413.48;103523;1290;97974;-71
2022/11/12 02:29:22;;;;;;;35.40;18.70;;;;;;;9.38;68.94;100415.05;103535;1291;95086;-69
2022/11/12 02:31:49;;;;;;;36.10;18.20;;;;;;;9.38;68.94;100412.21;103568;1290;111783;-70
2022/11/12 02:34:17;;;;;;;33.50;17.40;;;;;;;9.38;68.90;100410.98;103579;1297;97979;-69
2022/11/12 02:36:45;;;;;;;34.00;18.30;;;;;;;9.37;68.87;100411.88;103472;1298;107105;-69
2022/11/12 02:39:13;;;;;;;34.80;18.70;;;;;;;9.38;68.93;100411.89;103546;1296;97962;-69
2022/11/12 02:41:40;;;;;;;34.20;18.90;;;;;;;9.36;68.87;100409.30;103562;1297;95231;-69
2022/11/12 02:44:08;;;;;;;33.30;18.60;;;;;;;9.34;68.99;100405.53;103562;1295;111080;-70
2022/11/12 02:46:36;;;;;;;33.90;18.70;;;;;;;9.33;68.98;100408.04;103557;1292;97881;-69
2022/11/12 02:49:09;;;;;;;32.70;17.80;;;;;;;9.31;68.93;100408.30;103545;1297;108277;-71
2022/11/12 02:51:36;;;;;;;36.90;18.20;;;;;;;9.30;69.06;100404.63;103575;1298;97901;-72
2022/11/12 02:54:04;;;;;;;34.00;18.30;;;;;;;9.31;69.01;100409.36;103594;1298;97965;-73
2022/11/12 02:56:36;;;;;;;33.30;17.10;;;;;;;9.32;69.11;100407.89;103607;1297;111131;-70
2022/11/12 02:59:04;;;;;;;35.20;17.70;;;;;;;9.32;69.09;100405.95;103582;1290;99747;-71
2022/11/12 03:01:32;;;;;;;34.10;19.10;;;;;;;9.31;69.06;100407.27;103594;1297;106840;-71
2022/11/12 03:04:04;;;;;;;32.90;17.90;;;;;;;9.31;69.21;100412.57;103522;1297;97823;-71
2022/11/12 03:06:31;;;;;;;30.50;17.60;;;;;;;9.31;69.18;100410.23;103604;1298;97912;-72
2022/11/12 03:08:59;;;;;;;30.20;17.70;;;;;;;9.32;69.18;100412.70;103548;1290;111300;-70
2022/11/12 03:11:27;;;;;;;35.30;17.90;;;;;;;9.32;69.19;100413.92;103480;1296;97934;-72
2022/11/12 03:13:54;;;;;;;33.70;17.80;;;;;;;9.33;69.24;100412.30;103544;1296;106125;-72
2022/11/12 03:16:22;;;;;;;33.60;18.10;;;;;;;9.32;69.24;100412.67;103552;1296;98150;-71
2022/11/12 03:18:50;;;;;;;32.20;17.50;;;;;;;9.31;69.16;100419.66;103595;1292;97976;-73
2022/11/12 03:21:18;;;;;;;31.70;17.90;;;;;;;9.29;69.17;100428.59;103580;1298;111203;-71
2022/11/12 03:23:49;;;;;;;32.70;18.50;;;;;;;9.28;69.29;100436.06;103599;1294;95080;-74
2022/11/12 03:26:17;;;;;;;30.40;16.90;;;;;;;9.29;69.34;100437.44;103568;1298;106541;-71
2022/11/12 03:28:45;;;;;;;32.60;17.50;;;;;;;9.29;69.20;100434.41;103536;1298;98000;-71
2022/11/12 03:31:13;;;;;;;33.30;17.70;;;;;;;9.28;69.34;100436.23;103574;1293;97978;-71
2022/11/12 03:33:45;;;;;;;31.00;17.50;;;;;;;9.28;69.42;100433.73;103554;1298;111209;-71
2022/11/12 03:36:12;;;;;;;33.20;18.60;;;;;;;9.30;69.35;100435.10;103536;1290;97858;-70
2022/11/12 03:38:40;;;;;;;31.90;16.50;;;;;;;9.29;69.36;100435.83;103538;1297;107883;-71
2022/11/12 03:41:08;;;;;;;30.60;16.90;;;;;;;9.29;69.46;100429.13;103572;1297;95113;-71
2022/11/12 03:43:36;;;;;;;36.70;19.30;;;;;;;9.30;69.53;100428.33;103585;1298;98553;-70
2022/11/12 03:46:04;;;;;;;34.20;17.50;;;;;;;9.32;69.52;100426.70;103454;1298;111186;-71
2022/11/12 03:48:31;;;;;;;29.70;16.70;;;;;;;9.31;69.58;100427.42;103522;1288;97885;-71
2022/11/12 03:50:59;;;;;;;34.00;17.00;;;;;;;9.31;69.48;100427.42;103560;1298;107571;-69
2022/11/12 03:53:27;;;;;;;33.80;18.20;;;;;;;9.28;69.38;100421.38;103568;1300;96557;-70
2022/11/12 03:55:55;;;;;;;34.00;17.10;;;;;;;9.24;69.56;100416.39;103592;1298;95225;-70
2022/11/12 03:58:23;;;;;;;31.80;17.20;;;;;;;9.22;69.60;100415.42;103572;1296;111805;-70
2022/11/12 04:00:55;;;;;;;34.40;18.30;;;;;;;9.21;69.67;100414.23;103589;1290;95086;-71
2022/11/12 04:03:23;;;;;;;33.40;17.10;;;;;;;9.20;69.65;100418.35;103391;1298;107317;-70
2022/11/12 04:08:38;;;;;;;34.10;17.90;;;;;;;9.17;69.77;100426.98;103463;1301;97967;-70
2022/11/12 04:11:11;;;;;;;28.70;15.80;;;;;;;9.17;69.68;100427.84;103567;1281;111041;-69
2022/11/12 04:13:46;;;;;;;31.90;16.40;;;;;;;9.18;69.79;100426.40;103580;1297;97872;-70
2022/11/12 04:22:10;;;;;;;30.50;16.30;;;;;;;9.15;69.92;100417.86;103479;1290;95133;-70
2022/11/12 04:27:34;;;;;;;32.90;16.60;;;;;;;9.12;70.00;100421.37;103567;1297;97879;-73
2022/11/12 04:30:15;;;;;;;30.40;15.30;;;;;;;9.11;70.12;100423.20;103576;1298;106523;-71
2022/11/12 04:32:55;;;;;;;30.80;15.70;;;;;;;9.11;70.05;100424.06;103565;1297;95187;-73
2022/11/12 04:35:30;;;;;;;34.40;16.70;;;;;;;9.14;70.09;100431.94;103378;1299;97874;-71
2022/11/12 04:37:58;;;;;;;31.70;15.80;;;;;;;9.15;70.07;100423.21;103546;1293;111006;-71
2022/11/12 04:46:06;;;;;;;30.30;15.00;;;;;;;9.18;70.11;100416.50;103529;1298;97974;-70
2022/11/12 04:48:35;;;;;;;29.10;14.60;;;;;;;9.20;70.09;100423.32;103543;1296;97910;-69
2022/11/12 04:54:02;;;;;;;29.00;15.00;;;;;;;9.22;70.24;100422.52;103485;1298;97992;-70
2022/11/12 04:56:30;;;;;;;28.60;13.40;;;;;;;9.22;70.18;100421.62;103575;1294;107552;-70
2022/11/12 04:58:58;;;;;;;29.00;15.60;;;;;;;9.22;70.22;100426.91;103530;1294;97934;-70
2022/11/12 05:01:25;;;;;;;28.80;14.70;;;;;;;9.24;70.27;100429.50;103607;1298;97966;-70
2022/11/12 05:03:53;;;;;;;27.00;14.80;;;;;;;9.24;70.25;100436.92;103546;1294;111259;-69
2022/11/12 05:09:08;;;;;;;29.60;14.60;;;;;;;9.24;70.31;100433.59;103553;1290;107613;-70
2022/11/12 05:11:35;;;;;;;30.10;15.40;;;;;;;9.24;70.24;100431.10;103539;1291;97888;-71
2022/11/12 05:14:03;;;;;;;29.40;14.30;;;;;;;9.22;70.30;100435.77;103543;1295;97873;-70
2022/11/12 05:16:31;;;;;;;27.30;15.20;;;;;;;9.22;70.28;100434.20;103584;1298;110856;-71
2022/11/12 05:18:59;;;;;;;27.30;14.40;;;;;;;9.23;70.35;100435.77;104063;1291;97930;-70
2022/11/12 05:24:14;;;;;;;29.70;14.90;;;;;;;9.22;70.50;100439.84;103404;1302;98356;-69
2022/11/12 05:27:05;;;;;;;33.40;15.50;;;;;;;9.22;70.49;100439.84;103386;1294;97881;-70
2022/11/12 05:29:33;;;;;;;28.60;14.90;;;;;;;9.23;70.43;100442.98;103399;1304;111798;-70
2022/11/12 05:32:01;;;;;;;28.70;15.40;;;;;;;9.22;70.49;100434.89;103374;1290;97978;-71
2022/11/12 05:34:29;;;;;;;30.10;14.70;;;;;;;9.21;70.51;100434.95;103430;1298;108170;-69
2022/11/12 05:37:02;;;;;;;29.20;15.60;;;;;;;9.21;70.54;100439.21;103534;1291;99038;-70
2022/11/12 05:39:30;;;;;;;30.20;15.70;;;;;;;9.22;70.56;100442.53;103580;1298;97881;-72
2022/11/12 05:41:57;;;;;;;32.20;16.70;;;;;;;9.22;70.56;100442.48;103479;1302;111249;-70
2022/11/12 05:44:43;;;;;;;31.70;16.50;;;;;;;9.22;70.64;100446.20;103525;1299;97968;-69
2022/11/12 05:47:11;;;;;;;33.70;17.60;;;;;;;9.21;70.58;100447.88;103561;1296;107416;-70
2022/11/12 05:49:39;;;;;;;33.50;18.00;;;;;;;9.21;70.60;100445.73;103555;1297;96831;-72
2022/11/12 05:52:07;;;;;;;31.70;17.20;;;;;;;9.22;70.58;100448.55;103366;1298;95094;-70
2022/11/12 05:54:34;;;;;;;29.30;16.10;;;;;;;9.21;70.61;100449.80;103570;1297;111152;-72
2022/11/12 05:57:03;;;;;;;30.70;17.10;;;;;;;9.21;70.68;100450.00;103590;1297;97962;-71
2022/11/12 05:59:33;;;;;;;33.50;19.10;;;;;;;9.22;70.80;100455.41;103533;1297;107432;-70
2022/11/12 06:02:01;;;;;;;34.00;17.90;;;;;;;9.22;70.74;100455.76;103381;1295;98056;-69
2022/11/12 06:04:29;;;;;;;31.90;17.50;;;;;;;9.23;70.73;100453.98;103575;1297;97903;-70
2022/11/12 06:06:56;;;;;;;30.50;16.70;;;;;;;9.23;70.74;100454.32;103594;1298;111160;-71
2022/11/12 06:09:24;;;;;;;34.90;19.10;;;;;;;9.23;70.74;100460.69;103636;1291;97903;-70
2022/11/12 06:11:52;;;;;;;31.80;16.40;;;;;;;9.22;70.76;100462.15;103636;1298;107503;-70
2022/11/12 06:14:20;;;;;;;31.00;17.20;;;;;;;9.21;70.77;100465.02;103602;1296;98002;-71
2022/11/12 06:16:48;;;;;;;31.80;16.60;;;;;;;9.21;70.77;100465.03;103550;1296;97959;-69
2022/11/12 06:19:15;;;;;;;32.70;17.60;;;;;;;9.21;70.82;100468.20;103279;1301;111540;-68
2022/11/12 06:21:43;;;;;;;33.20;17.80;;;;;;;9.22;70.79;100467.63;103402;1301;97866;-69
2022/11/12 06:24:15;;;;;;;32.20;16.40;;;;;;;9.23;70.86;100469.21;103445;1297;107458;-69
2022/11/12 06:26:43;;;;;;;32.20;16.60;;;;;;;9.23;70.82;100466.02;103380;1290;97850;-72
2022/11/12 06:29:11;;;;;;;34.10;17.70;;;;;;;9.23;70.84;100474.30;103457;1298;97936;-71
2022/11/12 06:31:38;;;;;;;33.70;17.30;;;;;;;9.23;70.90;100473.61;103401;1299;111074;-68
2022/11/12 06:34:06;;;;;;;29.60;16.70;;;;;;;9.24;70.94;100478.87;103395;1291;97953;-67
2022/11/12 06:36:34;;;;;;;31.90;17.00;;;;;;;9.26;71.07;100484.13;103418;1298;108132;-69
2022/11/12 06:39:02;;;;;;;31.50;16.60;;;;;;;9.28;71.01;100483.69;103406;1299;97884;-68
2022/11/12 06:41:30;;;;;;;31.90;15.60;;;;;;;9.25;70.89;100479.91;103225;1298;95190;-69
2022/11/12 06:43:58;;;;;;;31.10;17.00;;;;;;;9.24;70.99;100483.67;103232;1293;114450;-70
2022/11/12 06:46:26;;;;;;;30.40;15.80;;;;;;;9.24;71.03;100485.59;103293;1300;97861;-70
2022/11/12 06:48:54;;;;;;;33.30;18.00;;;;;;;9.26;71.03;100487.65;103260;1302;107464;-68
2022/11/12 06:51:22;;;;;;;32.30;17.20;;;;;;;9.29;71.06;100490.55;103276;1298;95209;-70
2022/11/12 06:53:50;;;;;;;35.30;17.70;;;;;;;9.30;70.98;100485.02;103246;1299;96291;-70
2022/11/12 06:56:22;;;;;;;31.80;16.10;;;;;;;9.31;71.06;100487.77;103231;1297;110140;-70
2022/11/12 06:58:50;;;;;;;32.20;16.30;;;;;;;9.33;71.10;100487.68;103278;1302;97661;-69
2022/11/12 07:01:18;;;;;;;33.60;17.00;;;;;;;9.36;71.06;100484.90;103243;1302;107448;-70
2022/11/12 07:03:51;;;;;;;31.90;16.60;;;;;;;9.38;71.11;100483.39;103296;1305;97985;-69
2022/11/12 07:06:23;;;;;;;31.10;17.40;;;;;;;9.39;71.14;100486.52;103240;1299;98643;-69
2022/11/12 07:08:51;;;;;;;30.70;16.00;;;;;;;9.41;71.06;100490.90;103253;1302;110754;-69
2022/11/12 07:11:23;;;;;;;29.90;17.20;;;;;;;9.43;71.15;100493.11;103237;1299;95209;-70
2022/11/12 07:13:51;;;;;;;32.20;15.80;;;;;;;9.44;71.16;100491.43;103261;1298;106476;-69
2022/11/12 07:16:19;;;;;;;28.70;15.80;;;;;;;9.47;71.19;100486.02;103274;1290;95219;-68
2022/11/12 07:18:49;;;;;;;34.20;17.40;;;;;;;9.49;71.19;100485.55;103281;1294;95094;-69
2022/11/12 07:21:20;;;;;;;28.30;15.20;;;;;;;9.51;71.19;100489.52;103249;1303;111717;-70
2022/11/12 07:23:48;;;;;;;30.80;16.50;;;;;;;9.53;71.20;100488.05;103256;1299;97970;-70
2022/11/12 07:26:22;;;;;;;34.60;17.10;;;;;;;9.55;71.18;100493.08;103251;1308;107526;-69
2022/11/12 07:28:58;;;;;;;31.20;16.70;;;;;;;9.56;71.19;100494.83;103234;1299;98409;-69
2022/11/12 07:31:26;;;;;;;32.10;17.50;;;;;;;9.57;71.09;100493.89;103283;1293;97837;-69
2022/11/12 07:33:54;;;;;;;32.20;17.60;;;;;;;9.58;71.34;100491.38;103284;1298;111177;-68
2022/11/12 07:36:21;;;;;;;32.10;17.80;;;;;;;9.58;71.16;100491.03;103322;1297;97980;-69
2022/11/12 07:38:54;;;;;;;33.10;16.90;;;;;;;9.58;71.26;100490.98;103327;1307;107785;-69
2022/11/12 07:41:27;;;;;;;34.40;19.40;;;;;;;9.59;71.28;100490.95;103384;1290;97924;-68
2022/11/12 07:43:55;;;;;;;30.20;16.10;;;;;;;9.61;71.28;100488.04;103398;1296;97987;-69
2022/11/12 07:46:28;;;;;;;29.70;15.50;;;;;;;9.63;71.29;100484.59;103371;1299;111202;-70
2022/11/12 07:48:56;;;;;;;27.90;14.90;;;;;;;9.64;71.32;100483.45;103398;1298;95225;-69
2022/11/12 07:51:28;;;;;;;27.80;13.90;;;;;;;9.67;71.36;100483.83;103442;1298;107490;-70
2022/11/12 07:53:58;;;;;;;27.70;14.40;;;;;;;9.71;71.41;100485.82;103413;1298;95119;-69
2022/11/12 07:56:30;;;;;;;24.80;12.60;;;;;;;9.72;71.43;100489.11;103404;1290;97960;-70
2022/11/12 07:58:58;;;;;;;24.00;11.60;;;;;;;9.74;71.31;100494.17;103354;1297;111162;-70
2022/11/12 08:01:34;;;;;;;22.90;9.80;;;;;;;9.75;71.32;100488.99;103494;1290;96572;-70
2022/11/12 08:04:08;;;;;;;25.50;10.80;;;;;;;9.78;71.42;100491.33;103396;1290;108193;-68
2022/11/12 08:06:40;;;;;;;22.20;9.80;;;;;;;9.82;71.47;100493.44;103420;1299;95179;-70
2022/11/12 08:09:09;;;;;;;20.50;9.70;;;;;;;9.87;71.50;100493.76;103402;1293;95189;-68
2022/11/12 08:11:41;;;;;;;26.30;10.20;;;;;;;9.93;71.53;100496.84;103379;1299;111398;-69
2022/11/12 08:14:09;;;;;;;22.30;9.90;;;;;;;9.98;71.54;100497.14;103454;1300;97862;-69
2022/11/12 08:16:37;;;;;;;25.60;11.00;;;;;;;10.02;71.53;100498.02;103429;1297;107130;-69
2022/11/12 08:19:04;;;;;;;23.10;9.60;;;;;;;10.07;71.48;100498.69;103418;1290;98631;-69
2022/11/12 08:21:32;;;;;;;24.00;10.80;;;;;;;10.12;71.51;100505.31;103408;1291;97975;-68
2022/11/12 08:24:00;;;;;;;22.30;11.10;;;;;;;10.18;71.54;100510.89;103359;1297;111548;-68
2022/11/12 08:26:28;;;;;;;22.90;10.70;;;;;;;10.23;71.55;100509.93;103433;1290;97884;-69
2022/11/12 08:28:56;;;;;;;24.40;10.20;;;;;;;10.28;71.53;100509.33;103461;1297;107536;-68
2022/11/12 08:31:24;;;;;;;20.80;9.40;;;;;;;10.34;71.48;100507.67;103384;1297;98103;-70
2022/11/12 08:33:51;;;;;;;19.00;8.30;;;;;;;10.37;71.43;100514.96;103407;1291;95602;-70
2022/11/12 08:36:19;;;;;;;20.10;8.10;;;;;;;10.37;71.41;100512.46;103381;1294;111084;-69
2022/11/12 08:38:54;;;;;;;17.80;7.90;;;;;;;10.39;71.34;100510.29;103454;1295;97787;-68
2022/11/12 08:41:22;;;;;;;18.00;7.40;;;;;;;10.43;71.47;100505.98;103310;1303;107778;-69
2022/11/12 08:43:50;;;;;;;18.00;7.80;;;;;;;10.50;71.49;100503.89;103430;1297;98294;-69
2022/11/12 08:46:18;;;;;;;20.30;8.30;;;;;;;10.56;71.50;100505.92;103431;1292;95340;-70
2022/11/12 08:48:45;;;;;;;18.70;8.00;;;;;;;10.63;71.51;100509.09;103467;1296;111352;-73
2022/11/12 08:51:17;;;;;;;15.80;6.50;;;;;;;10.73;71.50;100509.67;103461;1296;97959;-69
2022/11/12 08:53:45;;;;;;;19.30;7.40;;;;;;;10.82;71.45;100512.59;103400;1292;107374;-73
2022/11/12 08:56:13;;;;;;;18.40;7.30;;;;;;;10.89;71.63;100515.24;103425;1298;95256;-68
2022/11/12 08:58:41;;;;;;;17.50;6.40;;;;;;;10.96;71.48;100517.25;103420;1298;95193;-68
2022/11/12 09:01:09;;;;;;;16.50;7.00;;;;;;;10.98;71.55;100520.48;103434;1292;111728;-68
2022/11/12 09:03:37;;;;;;;16.60;6.60;;;;;;;11.02;71.52;100521.50;103403;1296;95107;-68
2022/11/12 09:06:06;;;;;;;16.50;7.30;;;;;;;11.09;71.57;100518.54;103432;1298;108097;-70
2022/11/12 09:08:39;;;;;;;17.30;7.00;;;;;;;11.14;71.47;100514.72;103501;1290;97964;-69
2022/11/12 09:11:07;;;;;;;16.70;7.20;;;;;;;11.21;71.64;100517.02;103553;1298;97984;-70
2022/11/12 09:13:39;;;;;;;18.00;7.00;;;;;;;11.26;71.58;100517.45;103513;1290;110964;-68
2022/11/12 09:16:13;;;;;;;16.20;7.00;;;;;;;11.27;71.38;100515.98;103515;1298;97927;-69
2022/11/12 09:18:41;;;;;;;16.90;6.40;;;;;;;11.27;71.31;100519.02;103483;1296;107471;-68
2022/11/12 09:21:10;;;;;;;18.10;6.90;;;;;;;11.23;71.39;100520.98;103409;1292;97959;-70
2022/11/12 09:23:41;;;;;;;15.80;6.40;;;;;;;11.23;71.45;100520.48;103464;1291;97864;-69
2022/11/12 09:26:09;;;;;;;17.70;7.50;;;;;;;11.22;71.42;100515.50;103402;1297;111359;-69
2022/11/12 09:28:37;;;;;;;17.00;6.50;;;;;;;11.22;71.30;100516.61;103400;1294;97967;-68
2022/11/12 09:31:08;;;;;;;16.00;6.70;;;;;;;11.24;71.33;100512.95;103495;1297;108044;-69
2022/11/12 09:33:36;;;;;;;17.90;7.50;;;;;;;11.28;71.42;100510.45;103458;1292;97882;-68
2022/11/12 09:36:04;;;;;;;17.30;7.30;;;;;;;11.31;71.39;100508.50;103448;1284;98373;-70
2022/11/12 09:38:36;;;;;;;16.30;6.50;;;;;;;11.31;71.34;100509.06;103411;1297;111477;-69
2022/11/12 09:41:22;;;;;;;15.90;7.60;;;;;;;11.29;71.25;100509.63;103489;1292;97866;-68
2022/11/12 09:44:00;;;;;;;16.70;7.10;;;;;;;11.24;71.13;100512.02;103525;1296;107402;-68
2022/11/12 09:47:02;;;;;;;17.80;7.80;;;;;;;11.24;71.37;100508.67;103416;1293;96414;-69
2022/11/12 09:49:46;;;;;;;18.70;8.50;;;;;;;11.29;71.43;100513.02;103430;1294;95125;-69
2022/11/12 09:52:27;;;;;;;20.10;8.60;;;;;;;11.33;71.36;100508.77;103476;1299;111461;-68
2022/11/12 09:55:29;;;;;;;20.00;8.40;;;;;;;11.36;71.23;100510.19;103440;1293;97873;-70
2022/11/12 09:57:57;;;;;;;22.40;9.40;;;;;;;11.41;71.32;100512.59;103418;1301;107839;-73
2022/11/12 10:00:25;;;;;;;20.30;8.30;;;;;;;11.46;71.23;100500.23;103528;1291;97870;-70
2022/11/12 10:03:16;;;;;;;23.20;9.30;;;;;;;11.52;71.18;100498.52;103547;1291;96592;-78
2022/11/12 10:05:55;;;;;;;22.80;8.20;;;;;;;11.60;71.06;100498.26;103533;1296;113062;-76
2022/11/12 10:08:53;;;;;;;22.20;9.60;;;;;;;11.69;71.15;100498.11;103531;1290;98560;-78
2022/11/12 10:18:21;;;;;;;21.40;9.80;;;;;;;12.14;71.27;100494.29;103516;1296;97978;-67
2022/11/12 10:21:17;;;;;;;24.20;11.00;;;;;;;12.29;71.17;100488.30;103319;1300;111789;-68
2022/11/12 10:23:51;;;;;;;22.70;9.70;;;;;;;12.46;71.26;100481.80;103551;1297;97699;-70
2022/11/12 10:26:26;;;;;;;24.30;10.70;;;;;;;12.60;71.12;100477.59;103448;1295;107277;-68
2022/11/12 10:29:09;;;;;;;25.40;10.60;;;;;;;12.74;71.16;100483.20;103362;1298;96432;-70
2022/11/12 10:31:41;;;;;;;22.00;11.30;;;;;;;12.90;71.03;100483.51;103468;1285;97872;-69
2022/11/12 10:34:12;;;;;;;26.30;11.70;;;;;;;13.07;71.00;100476.40;103397;1291;111743;-68
2022/11/12 10:36:59;;;;;;;24.90;11.00;;;;;;;13.21;70.93;100475.38;103472;1299;97960;-69
2022/11/12 10:39:46;;;;;;;28.50;10.60;;;;;;;13.24;70.76;100472.36;103488;1292;107404;-71
2022/11/12 10:42:20;;;;;;;25.50;10.80;;;;;;;13.20;70.16;100471.20;103469;1292;97948;-69
2022/11/12 10:44:48;;;;;;;23.60;10.40;;;;;;;13.10;69.86;100470.02;103443;1298;97846;-68
2022/11/12 10:47:31;;;;;;;23.20;9.00;;;;;;;13.02;70.11;100469.42;103516;1291;111745;-68
2022/11/12 10:50:12;;;;;;;25.70;9.10;;;;;;;12.99;70.29;100477.59;103536;1291;95107;-70
2022/11/12 10:53:00;;;;;;;22.40;9.90;;;;;;;12.94;69.51;100476.52;103478;1297;107325;-68
2022/11/12 10:55:34;;;;;;;21.60;10.00;;;;;;;12.91;69.95;100475.58;103465;1290;98025;-68
2022/11/12 10:58:09;;;;;;;25.10;10.90;;;;;;;13.00;70.20;100471.13;103552;1290;97880;-68
2022/11/12 11:01:16;;;;;;;24.20;10.50;;;;;;;13.06;70.04;100467.55;103530;1291;114008;-68
2022/11/12 11:03:59;;;;;;;27.00;13.00;;;;;;;13.19;70.25;100466.82;103578;1290;95106;-68
2022/11/12 11:06:31;;;;;;;25.80;13.80;;;;;;;13.14;69.90;100468.88;103435;1297;108028;-69
2022/11/12 11:09:20;;;;;;;32.50;13.60;;;;;;;13.08;69.85;100464.58;103494;1297;97848;-69
2022/11/12 11:11:53;;;;;;;26.20;12.40;;;;;;;13.07;69.95;100464.48;103533;1292;97877;-70
2022/11/12 11:14:21;;;;;;;26.30;14.00;;;;;;;13.03;69.67;100462.09;103520;1298;111412;-69
2022/11/12 11:17:07;;;;;;;30.00;14.50;;;;;;;13.02;69.82;100458.04;103514;1290;95105;-70
2022/11/12 11:19:44;;;;;;;27.70;13.80;;;;;;;13.05;69.66;100459.23;103314;1301;107826;-70
2022/11/12 11:22:45;;;;;;;27.70;12.70;;;;;;;13.15;69.68;100454.39;103330;1298;97954;-73
2022/11/12 11:25:22;;;;;;;27.70;13.90;;;;;;;13.22;69.53;100453.95;103357;1295;97883;-72
2022/11/12 11:28:17;;;;;;;26.00;12.00;;;;;;;13.27;69.64;100451.91;103501;1293;110723;-71
2022/11/12 11:30:52;;;;;;;28.40;12.90;;;;;;;13.25;69.45;100453.41;103516;1290;97829;-69
2022/11/12 11:33:49;;;;;;;28.50;13.50;;;;;;;13.20;69.20;100451.59;103457;1291;107413;-69
2022/11/12 11:36:46;;;;;;;28.60;13.00;;;;;;;13.08;69.29;100450.89;103396;1292;95132;-70
2022/11/12 11:39:34;;;;;;;28.20;12.70;;;;;;;13.01;69.13;100449.02;103506;1299;97981;-68
2022/11/12 11:42:39;;;;;;;27.40;12.10;;;;;;;12.98;68.90;100441.22;103495;1299;111759;-68
2022/11/12 11:45:17;;;;;;;30.20;12.60;;;;;;;12.99;69.10;100438.10;103538;1290;97852;-69
2022/11/12 11:48:12;;;;;;;27.70;12.90;;;;;;;12.99;69.07;100437.77;103542;1295;107504;-72
2022/11/12 11:50:59;;;;;;;27.50;13.50;;;;;;;12.98;69.09;100435.14;103511;1299;97851;-68
2022/11/12 11:53:42;;;;;;;28.10;13.20;;;;;;;13.00;69.04;100436.96;103397;1298;95174;-68
2022/11/12 11:56:32;;;;;;;24.10;11.80;;;;;;;12.99;68.85;100433.27;103513;1291;111715;-69
2022/11/12 11:59:18;;;;;;;28.10;11.90;;;;;;;13.03;69.09;100431.63;103555;1292;97857;-68
2022/11/12 12:02:18;;;;;;;25.50;11.50;;;;;;;13.05;69.01;100429.33;103542;1291;108452;-68